x

Neah Bay, - 6nm North Of Cape Flattery, Wa (traffic Separation Lighted Buoy) (46087) Wave Buoy

2:50 - Sun 19th Feb 2017 All times are PST. -8 hours from GMT.

  • Sig Wave height 5.6ft
  • Swell Direction
  • Peak Period 12s
  • Average Period 9s
  • Wind
    9mph, 11mph gusts
  • Sea Temp 47°f
  • Aire Temp 45°f
  • Sea Pressure 994.1mb
  • Neah Bay, - 6nm North Of Cape Flattery, Wa     (traffic Separation Lighted Buoy)
  • Neah Bay, - 6nm North Of Cape Flattery, Wa     (traffic Separation Lighted Buoy)

More Historic Weather Station data

Upgrade to MSW Pro to gain access to the past 30 days of data for over 8000 Wavebouys and Weather Stations around the globe.

Join Pro

Comparision Forecast

View Surf forecast
   
dom 02/19 2:50 5.5ft 12s 9s 9 11 mph 994.1mb 47f 45f
2:20 5ft 11s 8s 7 11 mph 994.3mb 47f 45f
1:50 5ft 11s 8s 7 9 mph 994.4mb 47f 45f
1:20 5.5ft 11s 8s 9 11 mph 994.5mb 47f 44f
12:50 5.5ft 11s 8s 11 13 mph 994.8mb 47f 44f
12:20 5.5ft 11s 8s 11 13 mph 994.8mb 47f 45f
sáb 02/18 11:50 5.5ft 11s 8s 11 13 mph 995mb 47f 44f
11:20 5.5ft 10s 8s 13 16 mph 995.1mb 47f 44f
10:50 6ft 11s 8s 11 16 mph 995.2mb 47f 46f
10:20 5.5ft 10s 8s 9 11 mph 995.1mb 47f 46f
9:50 6ft 13s 8s 11 13 mph 995.1mb 47f 46f
9:20 6ft 11s 8s 9 13 mph 995.1mb 47f 46f
8:50 6ft 11s 8s 9 11 mph 995mb 47f 46f
8:20 6ft 11s 8s 7 11 mph 994.7mb 47f 47f
7:50 6.5ft 11s 8s 9 11 mph 994.7mb 47f 47f
7:20 6ft 11s 8s 9 11 mph 994.7mb 48f 47f
6:50 5.5ft 11s 7s 9 11 mph 994.6mb 48f 47f
6:20 5.5ft 11s 7s 11 18 mph 994.5mb 48f 46f
5:50 5ft 12s 8s 16 18 mph 994.4mb 48f 45f
5:20 6ft 12s 8s 16 18 mph 994.4mb 48f 45f
4:50 5.5ft 12s 8s 16 18 mph 994.6mb 48f 45f
4:20 5.5ft 12s 8s 13 18 mph 994.6mb 48f 45f
3:50 5.5ft 11s 8s 16 18 mph 994.7mb 48f 45f
3:20 5ft 11s 8s 13 18 mph 994.8mb 48f 45f
2:50 5ft 13s 8s 13 18 mph 994.7mb 48f 44f
2:20 5.5ft 11s 8s 13 18 mph 994.8mb 48f 45f
1:50 5ft 12s 8s 16 18 mph 995mb 48f 45f
1:20 6ft 12s 8s 16 20 mph 995.2mb 48f 45f
12:50 5.5ft 11s 7s 16 20 mph 995.4mb 48f 45f
12:20 5ft 12s 7s 18 20 mph 995.5mb 48f 46f
11:50 5.5ft 12s 6s 18 22 mph 995.6mb 48f 46f
11:20 6ft 11s 7s 18 22 mph 995.8mb 47f 46f
10:50 5.5ft 11s 7s 18 22 mph 996mb 47f 46f
10:20 6ft 11s 8s 18 22 mph 996.2mb 47f 46f
9:50 6ft 11s 8s 16 20 mph 996.2mb 47f 46f
9:20 6ft 13s 8s 13 18 mph 996.3mb 47f 45f
8:50 6ft 11s 8s 16 18 mph 996.2mb 47f 45f
8:20 6ft 11s 9s 13 18 mph 996.4mb 47f 45f
7:50 6.5ft 11s 9s 11 13 mph 996.7mb 47f 45f
7:20 6.5ft 11s 9s 11 13 mph 996.8mb 47f 45f
6:50 6.5ft 11s 9s 9 11 mph 997mb 47f 45f
6:20 6ft 11s 9s 9 11 mph 997.2mb 47f 45f
5:50 6ft 10s 9s 9 13 mph 997.4mb 47f 45f
5:20 7ft 11s 9s 9 11 mph 997.4mb 47f 44f
4:50 6ft 9s 9s 9 13 mph 997.5mb 47f 44f
4:20 6ft 10s 9s 9 11 mph 997.6mb 47f 45f
3:50 7ft 11s 9s 9 11 mph 997.9mb 47f 45f
3:20 6.5ft 11s 9s 7 11 mph 998mb 47f 45f
2:50 6ft 11s 9s 7 9 mph 998.3mb 47f 45f
2:20 5.5ft 11s 8s 7 9 mph 998.3mb 47f 45f
1:50 6ft 13s 9s 9
mph
998.4mb 47f 45f
1:20 6ft 11s 9s 9 11 mph 998.7mb 47f 45f
12:50 6ft 11s 9s 9 11 mph 999mb 47f 44f
12:20 5.5ft 13s 8s 9 11 mph 999.1mb 47f 45f
vie 02/17 11:50 6ft 11s 8s 7 11 mph 999.5mb 47f 45f
11:20 6ft 11s 8s 9 11 mph 999.7mb 48f 45f
10:50 6.5ft 11s 8s 11 13 mph 999.9mb 48f 45f
10:20 6ft 11s 9s 11 13 mph 1000.1mb 48f 45f
9:50 7.5ft 11s 9s 9 11 mph 1000.5mb 48f 46f
9:20 6.5ft 11s 8s 7 9 mph 1000.6mb 48f 46f
8:50 7ft 11s 9s 9 11 mph 1000.6mb 48f 46f
8:20 6.5ft 10s 9s 9 11 mph 1000.8mb 48f 46f
7:50 7ft 11s 9s 9 11 mph 1001.1mb 48f 46f
7:20 7ft 11s 9s 7 9 mph 1001.8mb 48f 47f
6:50 7ft 11s 9s 4 7 mph 1002mb 48f 47f
6:20 7.5ft 11s 9s 4 7 mph 1002.1mb 48f 47f
5:50 7.5ft 11s 9s 4 7 mph 1002.2mb 49f 47f
5:20 7ft 11s 9s 7 9 mph 1002.1mb 49f 47f
4:50 7ft 13s 9s 7 11 mph 1002mb 49f 47f
4:20 8ft 14s 9s 4 7 mph 1002.2mb 49f 47f
3:50 7ft 14s 9s 7 9 mph 1002.4mb 49f 48f
3:20 7ft 12s 9s 7 9 mph 1002.5mb 49f 48f
2:50 7.5ft 10s 9s 4 7 mph 1002.9mb 49f 47f
2:20 8ft 14s 10s 2 4 mph 1003.4mb 49f 47f
1:50 8ft 13s 10s 2 4 mph 1004.1mb 49f 47f
1:20 7.5ft 11s 10s 2 4 mph 1004.6mb 49f 47f
12:50 7ft 11s 9s 2 4 mph 1005mb 48f 47f
12:20 7ft 11s 10s 2 4 mph 1005.4mb 48f 47f
11:50 7ft 11s 10s 4 7 mph 1005.8mb 48f 46f
11:20 7ft 13s 9s 7 9 mph 1006.1mb 48f 45f
10:50 7ft 14s 9s 9 11 mph 1006.3mb 48f 45f
10:20 6ft 11s 9s 11 13 mph 1006.4mb 48f 45f
9:50 6.5ft 14s 9s 11 16 mph 1006.6mb 48f 45f
9:20 6ft 10s 9s 11 13 mph 1006.8mb 48f 45f
8:50 6.5ft 14s 9s 13 16 mph 1006.6mb 48f 45f
8:20 7ft 11s 9s 13 16 mph 1006.7mb 48f 45f
7:50 8ft 11s 9s 11 13 mph 1006.6mb 48f 45f
7:20 7ft 12s 9s 11 13 mph 1006.4mb 48f 45f
6:50 7ft 14s 8s 11 13 mph 1006.6mb 47f 45f
6:20 7ft 14s 8s 11 13 mph 1006.2mb 47f 45f
5:50 8ft 14s 9s 7 11 mph 1006.3mb 47f 45f
5:20 8ft 13s 9s 7 9 mph 1006.3mb 47f 46f
4:50 7.5ft 15s 8s 9 11 mph 1006.1mb 47f 46f
4:20 7.5ft 13s  -  9 11 mph 1006.1mb 47f 46f
3:50 8ft 15s 9s 7 9 mph 1006.2mb 47f 46f
3:20 8ft 11s 9s 4 7 mph 1006.2mb 47f 46f
2:50 7.5ft 12s 8s 4
mph
1006.3mb 47f 46f
2:20 7.5ft 13s 9s 7 9 mph 1006.2mb 47f 46f
1:50 8ft 12s 9s 9
mph
1006.1mb 47f 47f
1:20 8ft 11s 9s 7 9 mph 1006mb 47f 47f
12:50 7ft 11s 9s 7 9 mph 1006.2mb 47f 47f
12:20 7ft 11s 9s 7 9 mph 1005.9mb 48f 47f
jue 02/16 11:50 8ft 14s 9s 11 13 mph 1005.7mb 48f 47f
11:20 8ft 15s 9s 11 16 mph 1005.5mb 48f 47f
10:50 7ft 11s 9s 13 16 mph 1005.3mb 48f 46f
10:20 7ft 11s 9s 13 16 mph 1005mb 48f 46f
9:50 8ft 11s 9s 11 16 mph 1004.6mb 48f 47f
9:20 8ft 11s 9s 13 18 mph 1004.1mb 48f 47f
8:50 8ft 13s 9s 13 16 mph 1003.6mb 47f 47f
8:20 9ft 11s 9s 11 13 mph 1003.3mb 47f 47f
7:50 8.5ft 11s 9s 11 16 mph 1002.9mb 47f 47f
7:20 8.5ft 11s 8s 9 11 mph 1002.6mb 48f 48f
6:50 9ft 11s 9s 11 13 mph 1002.2mb 48f 48f
6:20 9ft 12s 9s 7 9 mph 1001.7mb 48f 47f
5:50 10ft 13s 9s 11 13 mph 1001.3mb 47f 48f
5:20 10ft 10s 8s 9 11 mph 1001mb 48f 48f
4:50 12ft 11s 9s 9 13 mph 1000.7mb 48f 48f
4:20 10.5ft 13s 9s 9 11 mph 1000.4mb 48f 48f
3:50 11ft 11s 9s 9 11 mph 1000.1mb 48f 48f
3:20 12ft 12s 9s 7 9 mph 999.4mb 48f 48f
2:50 10.5ft 11s 9s 7 11 mph 999.6mb 48f 48f
2:20 10ft 11s 9s 11 16 mph 999.1mb 47f 47f
1:50 11ft 12s 9s 9 11 mph 998.8mb 47f 48f
1:20 11ft 12s 10s 11 16 mph 998.5mb 47f 47f
12:50 10.5ft 12s 9s 9 11 mph 998.1mb 47f 47f
12:20 10ft 12s 10s 13 18 mph 997.7mb 47f 48f
11:50 10ft 11s 10s 11 13 mph 997.3mb 47f 48f
11:20 10ft 13s 10s 13 16 mph 997.1mb 47f 48f
10:50 8ft 13s 10s 16 20 mph 996.7mb 47f 47f
10:20 8.5ft 12s 9s 16 20 mph 996.5mb 47f 48f
9:50 8ft 12s 9s 18 22 mph 996.1mb 47f 48f
9:20 7.5ft 12s 9s 20 22 mph 995.6mb 47f 48f
8:50 8.5ft 13s 9s 18 20 mph 995.4mb 47f 48f
8:20 8ft 14s 9s 13 18 mph 995.5mb 47f 47f
7:50 8.5ft 13s 9s 16 20 mph 995.2mb 47f 47f
7:20 7.5ft 14s 8s 16 18 mph 994.6mb 47f 47f
6:50 8ft 13s 8s 16 18 mph 994.4mb 47f 47f
6:20 9.5ft 12s 9s 18 22 mph 994mb 47f 47f
5:50 8ft 12s 8s 18 20 mph 993.8mb 47f 48f
5:20 8ft 13s 8s 18 22 mph 993.5mb 48f 48f
4:50 9ft 12s 8s 20 22 mph 993.1mb 48f 48f
4:20 9ft 12s 8s 25 29 mph 992.8mb 48f 47f
3:50 9ft 12s 7s 22 27 mph 992.3mb 48f 47f
3:20 9ft 13s 7s 27 31 mph 992.3mb 48f 47f
2:50 9.5ft 12s 7s 25 29 mph 992.2mb 48f 49f
2:20 10ft 12s 7s 29 36 mph 991.8mb 48f 49f
1:50 9ft 11s 7s 31 38 mph 990.9mb 47f 50f
1:20 9.5ft 11s 7s 36 45 mph 989.8mb 47f 50f
12:50 9.5ft 13s 7s 38 45 mph 989.8mb 47f 51f
12:20 10ft 12s 7s 38 49 mph 989.4mb 47f 52f
mié 02/15 11:50 10ft 12s 7s 36 47 mph 989.5mb 47f 54f
11:20 10ft 13s 7s 34 43 mph 989.4mb 47f 55f
10:50 10ft 12s 7s 34 43 mph 989.3mb 47f 54f
10:20 10ft 12s 7s 36 45 mph 989.8mb 47f 55f
9:50 10.5ft 11s 7s 34 43 mph 990.2mb 47f 55f
9:20 10ft 12s 6s 38 47 mph 990.3mb 47f 54f
8:50 9ft 12s 6s 36 49 mph 990.4mb 47f 55f
8:20 9.5ft 11s 7s 38 49 mph 990.5mb 47f 55f
7:50 8ft 12s 6s 36 49 mph 990.9mb 47f 54f
7:20 8.5ft 12s 6s 34 49 mph 991mb 47f 54f
6:50 10ft 11s 7s 38 47 mph 991.1mb 47f 54f
6:20 8.5ft 11s 6s 34 40 mph 991.3mb 47f 54f
5:50 7.5ft 11s 6s 34 45 mph 991.5mb 47f 55f
5:20 8ft 13s 8s 31 47 mph 992mb 47f 54f
4:50 9ft 12s 8s 20 27 mph 992.1mb 47f 49f
4:20 8.5ft 12s 8s 22 27 mph 992mb 47f 49f
3:50 9.5ft 12s 8s 18 22 mph 993.3mb 47f 48f
3:20 9ft 11s 8s 18 25 mph 993.7mb 47f 49f
2:50 9ft 13s 8s 22 27 mph 995.1mb 47f 49f
2:20 9ft 13s 8s 18 20 mph 995.6mb 47f 51f
1:50 9.5ft 12s 8s 16 20 mph 996.7mb 47f 50f
1:20 9ft 11s 9s 18 27 mph 998.3mb 47f 50f
12:50 8ft 13s 9s 18 25 mph 999.6mb 47f 51f
12:20 7.5ft 11s 8s 16 20 mph 1000.5mb 47f 51f